sensor_id;sensor_type;location;lat;lon;timestamp;temperature;humidity
12841;DHT22;6487;48.626;12.486;2024-01-30T00:02:21;0.50;99.90
12841;DHT22;6487;48.626;12.486;2024-01-30T00:04:50;0.50;99.90
12841;DHT22;6487;48.626;12.486;2024-01-30T00:07:18;0.50;99.90
12841;DHT22;6487;48.626;12.486;2024-01-30T00:09:48;0.50;99.90
12841;DHT22;6487;48.626;12.486;2024-01-30T00:12:19;0.50;99.90
12841;DHT22;6487;48.626;12.486;2024-01-30T00:14:48;0.40;99.90
12841;DHT22;6487;48.626;12.486;2024-01-30T00:17:20;0.40;99.90
12841;DHT22;6487;48.626;12.486;2024-01-30T00:19:49;0.50;99.90
12841;DHT22;6487;48.626;12.486;2024-01-30T00:22:18;0.50;99.90
12841;DHT22;6487;48.626;12.486;2024-01-30T00:24:48;0.40;99.90
12841;DHT22;6487;48.626;12.486;2024-01-30T00:27:16;0.40;99.90
12841;DHT22;6487;48.626;12.486;2024-01-30T00:29:45;0.40;99.90
12841;DHT22;6487;48.626;12.486;2024-01-30T00:32:13;0.50;99.90
12841;DHT22;6487;48.626;12.486;2024-01-30T00:34:42;0.40;99.90
12841;DHT22;6487;48.626;12.486;2024-01-30T00:37:10;0.50;99.90
12841;DHT22;6487;48.626;12.486;2024-01-30T00:39:39;0.40;99.90
12841;DHT22;6487;48.626;12.486;2024-01-30T00:42:09;0.40;99.90
12841;DHT22;6487;48.626;12.486;2024-01-30T00:44:37;0.30;99.90
12841;DHT22;6487;48.626;12.486;2024-01-30T00:47:06;0.40;99.90
12841;DHT22;6487;48.626;12.486;2024-01-30T00:49:34;0.40;99.90
12841;DHT22;6487;48.626;12.486;2024-01-30T00:52:04;0.30;99.90
12841;DHT22;6487;48.626;12.486;2024-01-30T00:54:33;0.30;99.90
12841;DHT22;6487;48.626;12.486;2024-01-30T00:57:01;0.30;99.90
12841;DHT22;6487;48.626;12.486;2024-01-30T00:59:31;0.30;99.90
12841;DHT22;6487;48.626;12.486;2024-01-30T01:02:00;0.20;99.90
12841;DHT22;6487;48.626;12.486;2024-01-30T01:04:29;0.10;99.90
12841;DHT22;6487;48.626;12.486;2024-01-30T01:06:57;0.10;99.90
12841;DHT22;6487;48.626;12.486;2024-01-30T01:09:26;0.20;99.90
12841;DHT22;6487;48.626;12.486;2024-01-30T01:11:55;0.20;99.90
12841;DHT22;6487;48.626;12.486;2024-01-30T01:14:26;0.20;99.90
12841;DHT22;6487;48.626;12.486;2024-01-30T01:16:56;0.10;99.90
12841;DHT22;6487;48.626;12.486;2024-01-30T01:19:24;0.00;99.90
12841;DHT22;6487;48.626;12.486;2024-01-30T01:21:53;-0.10;99.90
12841;DHT22;6487;48.626;12.486;2024-01-30T01:24:22;-0.20;99.90
12841;DHT22;6487;48.626;12.486;2024-01-30T01:26:51;-0.10;99.90
12841;DHT22;6487;48.626;12.486;2024-01-30T01:29:19;-0.10;99.90
12841;DHT22;6487;48.626;12.486;2024-01-30T01:32:00;0.00;99.90
12841;DHT22;6487;48.626;12.486;2024-01-30T01:34:28;0.00;99.90
12841;DHT22;6487;48.626;12.486;2024-01-30T01:36:57;-0.10;99.90
12841;DHT22;6487;48.626;12.486;2024-01-30T01:39:26;0.00;99.90
12841;DHT22;6487;48.626;12.486;2024-01-30T01:41:57;0.00;99.90
12841;DHT22;6487;48.626;12.486;2024-01-30T01:44:27;0.10;99.90
12841;DHT22;6487;48.626;12.486;2024-01-30T01:46:57;0.00;99.90
12841;DHT22;6487;48.626;12.486;2024-01-30T01:49:28;0.00;99.90
12841;DHT22;6487;48.626;12.486;2024-01-30T01:51:58;0.00;99.90
12841;DHT22;6487;48.626;12.486;2024-01-30T01:54:28;-0.10;99.90
12841;DHT22;6487;48.626;12.486;2024-01-30T01:56:58;0.00;99.90
12841;DHT22;6487;48.626;12.486;2024-01-30T01:59:26;0.00;99.90
12841;DHT22;6487;48.626;12.486;2024-01-30T02:01:55;-0.10;99.90
12841;DHT22;6487;48.626;12.486;2024-01-30T02:04:24;-0.10;99.90
12841;DHT22;6487;48.626;12.486;2024-01-30T02:06:54;-0.10;99.90
12841;DHT22;6487;48.626;12.486;2024-01-30T02:09:23;-0.10;99.90
12841;DHT22;6487;48.626;12.486;2024-01-30T02:11:51;-0.10;99.90
12841;DHT22;6487;48.626;12.486;2024-01-30T02:14:20;-0.10;99.90
12841;DHT22;6487;48.626;12.486;2024-01-30T02:16:48;-0.10;99.90
12841;DHT22;6487;48.626;12.486;2024-01-30T02:19:17;-0.10;99.90
12841;DHT22;6487;48.626;12.486;2024-01-30T02:21:48;-0.20;99.90
12841;DHT22;6487;48.626;12.486;2024-01-30T02:24:18;-0.20;99.90
12841;DHT22;6487;48.626;12.486;2024-01-30T02:26:46;-0.10;99.90
12841;DHT22;6487;48.626;12.486;2024-01-30T02:29:15;-0.20;99.90
12841;DHT22;6487;48.626;12.486;2024-01-30T02:31:43;-0.20;99.90
12841;DHT22;6487;48.626;12.486;2024-01-30T02:34:13;0.00;99.90
12841;DHT22;6487;48.626;12.486;2024-01-30T02:36:42;-0.20;99.90
12841;DHT22;6487;48.626;12.486;2024-01-30T02:39:12;-0.30;99.90
12841;DHT22;6487;48.626;12.486;2024-01-30T02:41:40;-0.30;99.90
12841;DHT22;6487;48.626;12.486;2024-01-30T02:44:08;-0.40;99.90
12841;DHT22;6487;48.626;12.486;2024-01-30T02:46:37;-0.40;99.90
12841;DHT22;6487;48.626;12.486;2024-01-30T02:49:08;-0.40;99.90
12841;DHT22;6487;48.626;12.486;2024-01-30T02:51:37;-0.40;99.90
12841;DHT22;6487;48.626;12.486;2024-01-30T02:54:09;-0.40;99.90
12841;DHT22;6487;48.626;12.486;2024-01-30T02:56:50;-0.40;99.90
12841;DHT22;6487;48.626;12.486;2024-01-30T02:59:18;-0.50;99.90
12841;DHT22;6487;48.626;12.486;2024-01-30T03:01:46;-0.50;99.90
12841;DHT22;6487;48.626;12.486;2024-01-30T03:04:15;-0.40;99.90
12841;DHT22;6487;48.626;12.486;2024-01-30T03:06:47;-0.50;99.90
12841;DHT22;6487;48.626;12.486;2024-01-30T03:09:16;-0.50;99.90
12841;DHT22;6487;48.626;12.486;2024-01-30T03:11:46;-0.60;99.90
12841;DHT22;6487;48.626;12.486;2024-01-30T03:14:20;-0.70;99.90
12841;DHT22;6487;48.626;12.486;2024-01-30T03:16:48;-0.80;99.90
12841;DHT22;6487;48.626;12.486;2024-01-30T03:19:17;-0.90;99.90
12841;DHT22;6487;48.626;12.486;2024-01-30T03:21:45;-0.80;99.90
12841;DHT22;6487;48.626;12.486;2024-01-30T03:24:14;-0.80;99.90
12841;DHT22;6487;48.626;12.486;2024-01-30T03:26:43;-0.80;99.90
12841;DHT22;6487;48.626;12.486;2024-01-30T03:29:12;-0.80;99.90
12841;DHT22;6487;48.626;12.486;2024-01-30T03:31:41;-0.80;99.90
12841;DHT22;6487;48.626;12.486;2024-01-30T03:34:09;-1.00;99.90
12841;DHT22;6487;48.626;12.486;2024-01-30T03:36:38;-1.00;99.90
12841;DHT22;6487;48.626;12.486;2024-01-30T03:39:08;-1.00;99.90
12841;DHT22;6487;48.626;12.486;2024-01-30T03:41:37;-0.70;99.90
12841;DHT22;6487;48.626;12.486;2024-01-30T03:44:06;-0.90;99.90
12841;DHT22;6487;48.626;12.486;2024-01-30T03:46:36;-1.00;99.90
12841;DHT22;6487;48.626;12.486;2024-01-30T03:49:04;-0.90;99.90
12841;DHT22;6487;48.626;12.486;2024-01-30T03:51:36;-0.90;99.90
12841;DHT22;6487;48.626;12.486;2024-01-30T03:54:06;-1.00;99.90
12841;DHT22;6487;48.626;12.486;2024-01-30T03:56:35;-0.80;99.90
12841;DHT22;6487;48.626;12.486;2024-01-30T03:59:03;-1.00;99.90
12841;DHT22;6487;48.626;12.486;2024-01-30T04:01:32;-1.00;99.90
12841;DHT22;6487;48.626;12.486;2024-01-30T04:04:05;-1.00;99.90
12841;DHT22;6487;48.626;12.486;2024-01-30T04:06:34;-1.00;99.90
12841;DHT22;6487;48.626;12.486;2024-01-30T04:09:03;-1.00;99.90
12841;DHT22;6487;48.626;12.486;2024-01-30T04:11:31;-1.00;99.90
12841;DHT22;6487;48.626;12.486;2024-01-30T04:14:00;-0.90;99.90
12841;DHT22;6487;48.626;12.486;2024-01-30T04:16:28;-0.90;99.90
12841;DHT22;6487;48.626;12.486;2024-01-30T04:18:58;-1.00;99.90
12841;DHT22;6487;48.626;12.486;2024-01-30T04:21:31;-1.00;99.90
12841;DHT22;6487;48.626;12.486;2024-01-30T04:23:59;-1.10;99.90
12841;DHT22;6487;48.626;12.486;2024-01-30T04:26:28;-1.00;99.90
12841;DHT22;6487;48.626;12.486;2024-01-30T04:29:00;-1.10;99.90
12841;DHT22;6487;48.626;12.486;2024-01-30T04:31:28;-1.10;99.90
12841;DHT22;6487;48.626;12.486;2024-01-30T04:33:56;-1.10;99.90
12841;DHT22;6487;48.626;12.486;2024-01-30T04:36:25;-1.10;99.90
12841;DHT22;6487;48.626;12.486;2024-01-30T04:38:54;-1.20;99.90
12841;DHT22;6487;48.626;12.486;2024-01-30T04:41:23;-1.20;99.90
12841;DHT22;6487;48.626;12.486;2024-01-30T04:43:53;-1.10;99.90
12841;DHT22;6487;48.626;12.486;2024-01-30T04:46:23;-1.20;99.90
12841;DHT22;6487;48.626;12.486;2024-01-30T04:48:51;-1.20;99.90
12841;DHT22;6487;48.626;12.486;2024-01-30T04:51:20;-1.20;99.90
12841;DHT22;6487;48.626;12.486;2024-01-30T04:53:49;-1.20;99.90
12841;DHT22;6487;48.626;12.486;2024-01-30T04:56:19;-1.30;99.90
12841;DHT22;6487;48.626;12.486;2024-01-30T04:58:47;-1.30;99.90
12841;DHT22;6487;48.626;12.486;2024-01-30T05:01:15;-1.40;99.90
12841;DHT22;6487;48.626;12.486;2024-01-30T05:03:44;-1.30;99.90
12841;DHT22;6487;48.626;12.486;2024-01-30T05:06:24;-1.30;99.90
12841;DHT22;6487;48.626;12.486;2024-01-30T05:08:53;-1.30;99.90
12841;DHT22;6487;48.626;12.486;2024-01-30T05:11:23;-1.40;99.90
12841;DHT22;6487;48.626;12.486;2024-01-30T05:13:52;-1.40;99.90
12841;DHT22;6487;48.626;12.486;2024-01-30T05:16:20;-1.40;99.90
12841;DHT22;6487;48.626;12.486;2024-01-30T05:18:49;-1.50;99.90
12841;DHT22;6487;48.626;12.486;2024-01-30T05:21:17;-1.40;99.90
12841;DHT22;6487;48.626;12.486;2024-01-30T05:23:46;-1.50;99.90
12841;DHT22;6487;48.626;12.486;2024-01-30T05:26:15;-1.50;99.90
12841;DHT22;6487;48.626;12.486;2024-01-30T05:28:45;-1.50;99.90
12841;DHT22;6487;48.626;12.486;2024-01-30T05:31:13;-1.40;99.90
12841;DHT22;6487;48.626;12.486;2024-01-30T05:33:42;-1.50;99.90
12841;DHT22;6487;48.626;12.486;2024-01-30T05:36:12;-1.30;99.90
12841;DHT22;6487;48.626;12.486;2024-01-30T05:38:43;-1.50;99.90
12841;DHT22;6487;48.626;12.486;2024-01-30T05:41:14;-1.50;99.90
12841;DHT22;6487;48.626;12.486;2024-01-30T05:43:42;-1.50;99.90
12841;DHT22;6487;48.626;12.486;2024-01-30T05:46:13;-1.50;99.90
12841;DHT22;6487;48.626;12.486;2024-01-30T05:48:41;-1.50;99.90
12841;DHT22;6487;48.626;12.486;2024-01-30T05:51:10;-1.60;99.90
12841;DHT22;6487;48.626;12.486;2024-01-30T05:53:38;-1.60;99.90
12841;DHT22;6487;48.626;12.486;2024-01-30T05:56:07;-1.50;99.90
12841;DHT22;6487;48.626;12.486;2024-01-30T05:58:36;-1.60;99.90
12841;DHT22;6487;48.626;12.486;2024-01-30T06:01:08;-1.60;99.90
12841;DHT22;6487;48.626;12.486;2024-01-30T06:03:37;-1.60;99.90
12841;DHT22;6487;48.626;12.486;2024-01-30T06:06:10;-1.70;99.90
12841;DHT22;6487;48.626;12.486;2024-01-30T06:08:38;-1.90;99.90
12841;DHT22;6487;48.626;12.486;2024-01-30T06:11:10;-1.90;99.90
12841;DHT22;6487;48.626;12.486;2024-01-30T06:13:39;-1.80;99.90
12841;DHT22;6487;48.626;12.486;2024-01-30T06:16:10;-1.80;99.90
12841;DHT22;6487;48.626;12.486;2024-01-30T06:18:39;-1.80;99.90
12841;DHT22;6487;48.626;12.486;2024-01-30T06:21:07;-1.70;99.90
12841;DHT22;6487;48.626;12.486;2024-01-30T06:23:39;-1.70;99.90
12841;DHT22;6487;48.626;12.486;2024-01-30T06:26:07;-1.70;99.90
12841;DHT22;6487;48.626;12.486;2024-01-30T06:28:37;-1.80;99.90
12841;DHT22;6487;48.626;12.486;2024-01-30T06:31:05;-1.80;99.90
12841;DHT22;6487;48.626;12.486;2024-01-30T06:33:35;-1.70;99.90
12841;DHT22;6487;48.626;12.486;2024-01-30T06:36:04;-1.80;99.90
12841;DHT22;6487;48.626;12.486;2024-01-30T06:38:33;-1.70;99.90
12841;DHT22;6487;48.626;12.486;2024-01-30T06:41:04;-1.80;99.90
12841;DHT22;6487;48.626;12.486;2024-01-30T06:43:33;-1.80;99.90
12841;DHT22;6487;48.626;12.486;2024-01-30T06:46:01;-1.80;99.90
12841;DHT22;6487;48.626;12.486;2024-01-30T06:48:30;-1.70;99.90
12841;DHT22;6487;48.626;12.486;2024-01-30T06:51:00;-1.70;99.90
12841;DHT22;6487;48.626;12.486;2024-01-30T06:53:29;-1.80;99.90
12841;DHT22;6487;48.626;12.486;2024-01-30T06:55:57;-1.80;99.90
12841;DHT22;6487;48.626;12.486;2024-01-30T06:58:26;-1.80;99.90
12841;DHT22;6487;48.626;12.486;2024-01-30T07:00:55;-1.80;99.90
12841;DHT22;6487;48.626;12.486;2024-01-30T07:03:24;-1.70;99.90
12841;DHT22;6487;48.626;12.486;2024-01-30T07:05:52;-1.80;99.90
12841;DHT22;6487;48.626;12.486;2024-01-30T07:08:22;-1.80;99.90
12841;DHT22;6487;48.626;12.486;2024-01-30T07:10:51;-1.80;99.90
12841;DHT22;6487;48.626;12.486;2024-01-30T07:13:27;-1.70;99.90
12841;DHT22;6487;48.626;12.486;2024-01-30T07:15:56;-1.80;99.90
12841;DHT22;6487;48.626;12.486;2024-01-30T07:18:25;-1.80;99.90
12841;DHT22;6487;48.626;12.486;2024-01-30T07:20:53;-1.80;99.90
12841;DHT22;6487;48.626;12.486;2024-01-30T07:23:23;-1.70;99.90
12841;DHT22;6487;48.626;12.486;2024-01-30T07:25:52;-1.70;99.90
12841;DHT22;6487;48.626;12.486;2024-01-30T07:28:20;-1.60;99.90
12841;DHT22;6487;48.626;12.486;2024-01-30T07:30:49;-1.70;99.90
12841;DHT22;6487;48.626;12.486;2024-01-30T07:33:17;-1.60;99.90
12841;DHT22;6487;48.626;12.486;2024-01-30T07:35:46;-1.40;99.90
12841;DHT22;6487;48.626;12.486;2024-01-30T07:38:15;-1.40;99.90
12841;DHT22;6487;48.626;12.486;2024-01-30T07:40:45;-1.20;99.90
12841;DHT22;6487;48.626;12.486;2024-01-30T07:43:13;-1.00;99.90
12841;DHT22;6487;48.626;12.486;2024-01-30T07:45:45;-0.90;99.90
12841;DHT22;6487;48.626;12.486;2024-01-30T07:48:14;-0.70;99.90
12841;DHT22;6487;48.626;12.486;2024-01-30T07:50:43;-0.60;99.90
12841;DHT22;6487;48.626;12.486;2024-01-30T07:53:11;-0.50;99.90
12841;DHT22;6487;48.626;12.486;2024-01-30T07:55:40;-0.30;99.90
12841;DHT22;6487;48.626;12.486;2024-01-30T07:58:12;-0.30;99.90
12841;DHT22;6487;48.626;12.486;2024-01-30T08:00:41;-0.10;99.90
12841;DHT22;6487;48.626;12.486;2024-01-30T08:03:09;0.10;99.90
12841;DHT22;6487;48.626;12.486;2024-01-30T08:05:38;0.30;99.90
12841;DHT22;6487;48.626;12.486;2024-01-30T08:08:07;0.50;99.90
12841;DHT22;6487;48.626;12.486;2024-01-30T08:10:36;0.60;99.90
12841;DHT22;6487;48.626;12.486;2024-01-30T08:13:04;0.70;99.90
12841;DHT22;6487;48.626;12.486;2024-01-30T08:15:35;0.90;99.90
12841;DHT22;6487;48.626;12.486;2024-01-30T08:18:03;1.10;99.90
12841;DHT22;6487;48.626;12.486;2024-01-30T08:20:33;1.20;99.90
12841;DHT22;6487;48.626;12.486;2024-01-30T08:23:02;1.40;99.90
12841;DHT22;6487;48.626;12.486;2024-01-30T08:25:31;1.50;99.90
12841;DHT22;6487;48.626;12.486;2024-01-30T08:28:00;1.60;99.90
12841;DHT22;6487;48.626;12.486;2024-01-30T08:30:28;1.80;99.90
12841;DHT22;6487;48.626;12.486;2024-01-30T08:32:58;2.00;99.90
12841;DHT22;6487;48.626;12.486;2024-01-30T08:35:27;2.10;99.90
12841;DHT22;6487;48.626;12.486;2024-01-30T08:37:58;2.20;99.90
12841;DHT22;6487;48.626;12.486;2024-01-30T08:40:27;2.40;99.90
12841;DHT22;6487;48.626;12.486;2024-01-30T08:42:56;2.60;99.90
12841;DHT22;6487;48.626;12.486;2024-01-30T08:45:25;2.70;99.90
12841;DHT22;6487;48.626;12.486;2024-01-30T08:47:54;2.80;99.90
12841;DHT22;6487;48.626;12.486;2024-01-30T08:50:24;3.00;99.90
12841;DHT22;6487;48.626;12.486;2024-01-30T08:52:52;3.20;99.90
12841;DHT22;6487;48.626;12.486;2024-01-30T08:55:21;3.30;99.90
12841;DHT22;6487;48.626;12.486;2024-01-30T08:57:49;3.50;99.90
12841;DHT22;6487;48.626;12.486;2024-01-30T09:00:19;3.70;99.90
12841;DHT22;6487;48.626;12.486;2024-01-30T09:02:48;3.80;99.90
12841;DHT22;6487;48.626;12.486;2024-01-30T09:05:17;3.90;99.90
12841;DHT22;6487;48.626;12.486;2024-01-30T09:07:47;4.00;99.90
12841;DHT22;6487;48.626;12.486;2024-01-30T09:10:18;4.30;99.90
12841;DHT22;6487;48.626;12.486;2024-01-30T09:12:49;4.50;99.90
12841;DHT22;6487;48.626;12.486;2024-01-30T09:15:18;4.50;99.90
12841;DHT22;6487;48.626;12.486;2024-01-30T09:17:50;4.60;99.90
12841;DHT22;6487;48.626;12.486;2024-01-30T09:20:19;4.80;99.90
12841;DHT22;6487;48.626;12.486;2024-01-30T09:22:50;4.80;99.90
12841;DHT22;6487;48.626;12.486;2024-01-30T09:25:19;5.00;99.90
12841;DHT22;6487;48.626;12.486;2024-01-30T09:27:47;5.10;99.90
12841;DHT22;6487;48.626;12.486;2024-01-30T09:30:17;5.30;99.90
12841;DHT22;6487;48.626;12.486;2024-01-30T09:32:45;5.40;99.90
12841;DHT22;6487;48.626;12.486;2024-01-30T09:35:14;5.60;99.90
12841;DHT22;6487;48.626;12.486;2024-01-30T09:37:43;5.80;99.90
12841;DHT22;6487;48.626;12.486;2024-01-30T09:40:13;5.90;99.90
12841;DHT22;6487;48.626;12.486;2024-01-30T09:42:47;6.00;99.90
12841;DHT22;6487;48.626;12.486;2024-01-30T09:45:18;6.10;99.90
12841;DHT22;6487;48.626;12.486;2024-01-30T09:47:46;6.30;99.90
12841;DHT22;6487;48.626;12.486;2024-01-30T09:50:16;6.40;99.90
12841;DHT22;6487;48.626;12.486;2024-01-30T09:52:45;6.50;99.90
12841;DHT22;6487;48.626;12.486;2024-01-30T09:55:16;6.70;99.90
12841;DHT22;6487;48.626;12.486;2024-01-30T09:57:44;6.80;99.90
12841;DHT22;6487;48.626;12.486;2024-01-30T10:00:14;6.80;99.90
12841;DHT22;6487;48.626;12.486;2024-01-30T10:02:43;6.90;99.90
12841;DHT22;6487;48.626;12.486;2024-01-30T10:05:15;7.00;99.90
12841;DHT22;6487;48.626;12.486;2024-01-30T10:07:53;7.20;99.90
12841;DHT22;6487;48.626;12.486;2024-01-30T10:10:25;7.30;99.90
12841;DHT22;6487;48.626;12.486;2024-01-30T10:12:56;7.40;99.90
12841;DHT22;6487;48.626;12.486;2024-01-30T10:15:28;7.40;99.90
12841;DHT22;6487;48.626;12.486;2024-01-30T10:17:57;7.50;99.90
12841;DHT22;6487;48.626;12.486;2024-01-30T10:20:26;7.60;99.90
12841;DHT22;6487;48.626;12.486;2024-01-30T10:22:55;7.70;99.90
12841;DHT22;6487;48.626;12.486;2024-01-30T10:25:25;7.90;99.90
12841;DHT22;6487;48.626;12.486;2024-01-30T10:27:55;8.00;99.90
12841;DHT22;6487;48.626;12.486;2024-01-30T10:30:23;8.10;99.90
12841;DHT22;6487;48.626;12.486;2024-01-30T10:32:52;8.30;99.90
12841;DHT22;6487;48.626;12.486;2024-01-30T10:35:21;8.40;99.90
12841;DHT22;6487;48.626;12.486;2024-01-30T10:37:49;8.50;99.90
12841;DHT22;6487;48.626;12.486;2024-01-30T10:40:21;8.60;99.90
12841;DHT22;6487;48.626;12.486;2024-01-30T10:42:55;8.70;99.90
12841;DHT22;6487;48.626;12.486;2024-01-30T10:45:26;8.90;99.90
12841;DHT22;6487;48.626;12.486;2024-01-30T10:47:59;9.00;99.90
12841;DHT22;6487;48.626;12.486;2024-01-30T10:50:31;9.10;99.90
12841;DHT22;6487;48.626;12.486;2024-01-30T10:53:06;9.20;99.90
12841;DHT22;6487;48.626;12.486;2024-01-30T10:55:39;9.30;99.90
12841;DHT22;6487;48.626;12.486;2024-01-30T10:58:08;9.40;99.90
12841;DHT22;6487;48.626;12.486;2024-01-30T11:00:38;9.50;99.90
12841;DHT22;6487;48.626;12.486;2024-01-30T11:03:07;9.50;99.90
12841;DHT22;6487;48.626;12.486;2024-01-30T11:05:40;9.60;99.90
12841;DHT22;6487;48.626;12.486;2024-01-30T11:08:12;9.60;99.90
12841;DHT22;6487;48.626;12.486;2024-01-30T11:10:48;9.70;99.90
12841;DHT22;6487;48.626;12.486;2024-01-30T11:13:19;9.50;99.50
12841;DHT22;6487;48.626;12.486;2024-01-30T11:15:48;9.60;99.90
12841;DHT22;6487;48.626;12.486;2024-01-30T11:18:23;9.70;99.90
12841;DHT22;6487;48.626;12.486;2024-01-30T11:20:52;9.70;99.80
12841;DHT22;6487;48.626;12.486;2024-01-30T11:23:25;9.70;99.60
12841;DHT22;6487;48.626;12.486;2024-01-30T11:25:56;9.70;99.60
12841;DHT22;6487;48.626;12.486;2024-01-30T11:28:32;9.70;99.50
12841;DHT22;6487;48.626;12.486;2024-01-30T11:31:05;9.80;99.30
12841;DHT22;6487;48.626;12.486;2024-01-30T11:33:35;9.80;99.70
12841;DHT22;6487;48.626;12.486;2024-01-30T11:36:04;9.80;99.80
12841;DHT22;6487;48.626;12.486;2024-01-30T11:38:35;9.60;99.80
12841;DHT22;6487;48.626;12.486;2024-01-30T11:41:05;9.60;99.80
12841;DHT22;6487;48.626;12.486;2024-01-30T11:43:34;9.70;99.90
12841;DHT22;6487;48.626;12.486;2024-01-30T11:46:03;9.80;99.90
12841;DHT22;6487;48.626;12.486;2024-01-30T11:48:31;9.80;99.90
12841;DHT22;6487;48.626;12.486;2024-01-30T11:51:00;9.80;99.80
12841;DHT22;6487;48.626;12.486;2024-01-30T11:53:28;9.70;99.80
12841;DHT22;6487;48.626;12.486;2024-01-30T11:55:57;9.50;99.90
12841;DHT22;6487;48.626;12.486;2024-01-30T11:58:26;9.60;99.90
12841;DHT22;6487;48.626;12.486;2024-01-30T12:00:55;9.60;99.90
12841;DHT22;6487;48.626;12.486;2024-01-30T12:03:27;9.70;99.90
12841;DHT22;6487;48.626;12.486;2024-01-30T12:05:56;9.60;99.90
12841;DHT22;6487;48.626;12.486;2024-01-30T12:08:26;9.60;99.90
12841;DHT22;6487;48.626;12.486;2024-01-30T12:10:56;9.60;99.90
12841;DHT22;6487;48.626;12.486;2024-01-30T12:13:28;9.60;99.90
12841;DHT22;6487;48.626;12.486;2024-01-30T12:15:59;9.50;99.90
12841;DHT22;6487;48.626;12.486;2024-01-30T12:18:29;9.50;99.90
12841;DHT22;6487;48.626;12.486;2024-01-30T12:20:58;9.50;99.90
12841;DHT22;6487;48.626;12.486;2024-01-30T12:23:28;9.50;99.90
12841;DHT22;6487;48.626;12.486;2024-01-30T12:25:57;9.30;99.90
12841;DHT22;6487;48.626;12.486;2024-01-30T12:28:27;9.40;99.90
12841;DHT22;6487;48.626;12.486;2024-01-30T12:30:56;9.40;99.90
12841;DHT22;6487;48.626;12.486;2024-01-30T12:33:26;9.40;99.90
12841;DHT22;6487;48.626;12.486;2024-01-30T12:35:56;9.30;99.90
12841;DHT22;6487;48.626;12.486;2024-01-30T12:38:29;9.30;99.90
12841;DHT22;6487;48.626;12.486;2024-01-30T12:40:59;9.30;99.90
12841;DHT22;6487;48.626;12.486;2024-01-30T12:43:29;9.20;99.90
12841;DHT22;6487;48.626;12.486;2024-01-30T12:46:05;9.30;99.90
12841;DHT22;6487;48.626;12.486;2024-01-30T12:48:34;9.20;99.90
12841;DHT22;6487;48.626;12.486;2024-01-30T12:51:03;9.10;99.90
12841;DHT22;6487;48.626;12.486;2024-01-30T12:53:31;9.00;99.90
12841;DHT22;6487;48.626;12.486;2024-01-30T12:56:00;9.10;99.90
12841;DHT22;6487;48.626;12.486;2024-01-30T12:58:29;9.00;99.90
12841;DHT22;6487;48.626;12.486;2024-01-30T13:00:58;9.10;99.90
12841;DHT22;6487;48.626;12.486;2024-01-30T13:03:26;9.10;99.90
12841;DHT22;6487;48.626;12.486;2024-01-30T13:05:55;9.00;99.90
12841;DHT22;6487;48.626;12.486;2024-01-30T13:08:25;8.70;99.90
12841;DHT22;6487;48.626;12.486;2024-01-30T13:10:53;8.80;99.90
12841;DHT22;6487;48.626;12.486;2024-01-30T13:13:22;8.80;99.90
12841;DHT22;6487;48.626;12.486;2024-01-30T13:15:52;9.10;99.90
12841;DHT22;6487;48.626;12.486;2024-01-30T13:18:20;9.10;99.90
12841;DHT22;6487;48.626;12.486;2024-01-30T13:20:49;9.20;99.90
12841;DHT22;6487;48.626;12.486;2024-01-30T13:23:17;8.90;99.90
12841;DHT22;6487;48.626;12.486;2024-01-30T13:25:46;9.10;99.90
12841;DHT22;6487;48.626;12.486;2024-01-30T13:28:14;9.10;99.90
12841;DHT22;6487;48.626;12.486;2024-01-30T13:30:42;8.90;99.90
12841;DHT22;6487;48.626;12.486;2024-01-30T13:33:12;8.80;99.90
12841;DHT22;6487;48.626;12.486;2024-01-30T13:35:41;8.90;99.90
12841;DHT22;6487;48.626;12.486;2024-01-30T13:38:09;8.90;99.90
12841;DHT22;6487;48.626;12.486;2024-01-30T13:40:38;8.70;99.90
12841;DHT22;6487;48.626;12.486;2024-01-30T13:43:06;8.70;99.90
12841;DHT22;6487;48.626;12.486;2024-01-30T13:45:35;8.70;99.90
12841;DHT22;6487;48.626;12.486;2024-01-30T13:48:03;8.50;99.90
12841;DHT22;6487;48.626;12.486;2024-01-30T13:50:34;8.60;99.90
12841;DHT22;6487;48.626;12.486;2024-01-30T13:53:03;8.50;99.90
12841;DHT22;6487;48.626;12.486;2024-01-30T13:55:32;8.40;99.90
12841;DHT22;6487;48.626;12.486;2024-01-30T13:58:00;8.50;99.90
12841;DHT22;6487;48.626;12.486;2024-01-30T14:00:29;8.40;99.90
12841;DHT22;6487;48.626;12.486;2024-01-30T14:02:58;8.30;99.90
12841;DHT22;6487;48.626;12.486;2024-01-30T14:05:27;8.20;99.90
12841;DHT22;6487;48.626;12.486;2024-01-30T14:07:58;8.10;99.90
12841;DHT22;6487;48.626;12.486;2024-01-30T14:10:27;8.10;99.90
12841;DHT22;6487;48.626;12.486;2024-01-30T14:12:55;8.00;99.90
12841;DHT22;6487;48.626;12.486;2024-01-30T14:15:24;8.10;99.90
12841;DHT22;6487;48.626;12.486;2024-01-30T14:17:55;8.00;99.90
12841;DHT22;6487;48.626;12.486;2024-01-30T14:20:25;8.10;99.90
12841;DHT22;6487;48.626;12.486;2024-01-30T14:22:54;8.10;99.90
12841;DHT22;6487;48.626;12.486;2024-01-30T14:25:24;7.90;99.90
12841;DHT22;6487;48.626;12.486;2024-01-30T14:27:53;7.70;99.90
12841;DHT22;6487;48.626;12.486;2024-01-30T14:30:21;7.80;99.90
12841;DHT22;6487;48.626;12.486;2024-01-30T14:32:50;7.90;99.90
12841;DHT22;6487;48.626;12.486;2024-01-30T14:35:19;7.90;99.90
12841;DHT22;6487;48.626;12.486;2024-01-30T14:37:48;7.80;99.90
12841;DHT22;6487;48.626;12.486;2024-01-30T14:40:18;7.80;99.90
12841;DHT22;6487;48.626;12.486;2024-01-30T14:42:47;7.70;99.90
12841;DHT22;6487;48.626;12.486;2024-01-30T14:45:16;7.60;99.90
12841;DHT22;6487;48.626;12.486;2024-01-30T14:47:45;7.60;99.90
12841;DHT22;6487;48.626;12.486;2024-01-30T14:50:14;7.60;99.90
12841;DHT22;6487;48.626;12.486;2024-01-30T14:52:44;7.60;99.90
12841;DHT22;6487;48.626;12.486;2024-01-30T14:55:12;7.50;99.90
12841;DHT22;6487;48.626;12.486;2024-01-30T14:57:42;7.60;99.90
12841;DHT22;6487;48.626;12.486;2024-01-30T15:00:13;7.70;99.90
12841;DHT22;6487;48.626;12.486;2024-01-30T15:02:44;7.60;99.90
12841;DHT22;6487;48.626;12.486;2024-01-30T15:05:13;7.50;99.90
12841;DHT22;6487;48.626;12.486;2024-01-30T15:07:42;7.50;99.90
12841;DHT22;6487;48.626;12.486;2024-01-30T15:10:11;7.60;99.90
12841;DHT22;6487;48.626;12.486;2024-01-30T15:12:40;7.50;99.90
12841;DHT22;6487;48.626;12.486;2024-01-30T15:15:09;7.40;99.90
12841;DHT22;6487;48.626;12.486;2024-01-30T15:17:38;7.40;99.90
12841;DHT22;6487;48.626;12.486;2024-01-30T15:20:07;7.50;99.90
12841;DHT22;6487;48.626;12.486;2024-01-30T15:22:37;7.50;99.90
12841;DHT22;6487;48.626;12.486;2024-01-30T15:25:07;7.50;99.90
12841;DHT22;6487;48.626;12.486;2024-01-30T15:27:36;7.60;99.90
12841;DHT22;6487;48.626;12.486;2024-01-30T15:30:06;7.50;99.90
12841;DHT22;6487;48.626;12.486;2024-01-30T15:32:34;7.60;99.90
12841;DHT22;6487;48.626;12.486;2024-01-30T15:35:04;7.50;99.90
12841;DHT22;6487;48.626;12.486;2024-01-30T15:37:33;7.50;99.90
12841;DHT22;6487;48.626;12.486;2024-01-30T15:40:01;7.40;99.90
12841;DHT22;6487;48.626;12.486;2024-01-30T15:42:33;7.40;99.90
12841;DHT22;6487;48.626;12.486;2024-01-30T15:45:01;7.30;99.90
12841;DHT22;6487;48.626;12.486;2024-01-30T15:47:32;7.20;99.90
12841;DHT22;6487;48.626;12.486;2024-01-30T15:50:00;7.10;99.90
12841;DHT22;6487;48.626;12.486;2024-01-30T15:52:29;7.10;99.90
12841;DHT22;6487;48.626;12.486;2024-01-30T15:54:58;7.00;99.90